Time;durP1;ratioP1;P1;durP2;ratioP2;P2;SDS_P1;SDS_P2;PMS_P1;PMS_P2;Temp;Humidity;BMP_temperature;BMP_pressure;BME280_temperature;BME280_humidity;BME280_pressure;Samples;Min_cycle;Max_cycle;Signal;HPM_P1;HPM_P2
2022/08/25 00:00:32;;;;;;;1.30;1.20;;;24.50;35.30;;;;;;5098826;28;20429;-73
2022/08/25 00:02:58;;;;;;;1.30;1.30;;;24.40;35.00;;;;;;5094014;28;20467;-73
2022/08/25 00:05:28;;;;;;;1.30;1.20;;;24.50;34.70;;;;;;5091205;28;20174;-73
2022/08/25 00:07:54;;;;;;;1.30;1.30;;;24.50;35.00;;;;;;5097158;28;20470;-72
2022/08/25 00:10:20;;;;;;;1.30;1.10;;;24.40;34.70;;;;;;5099499;28;20486;-72
2022/08/25 00:12:45;;;;;;;1.30;1.30;;;24.40;35.40;;;;;;5092079;28;20424;-72
2022/08/25 00:15:11;;;;;;;1.30;1.10;;;24.40;34.50;;;;;;5099988;28;20169;-73
2022/08/25 00:17:37;;;;;;;1.30;1.20;;;24.50;34.60;;;;;;5087252;28;20261;-72
2022/08/25 00:20:04;;;;;;;1.30;1.13;;;24.60;35.10;;;;;;5096835;28;20546;-73
2022/08/25 00:22:30;;;;;;;1.30;1.20;;;24.50;34.80;;;;;;5099766;28;20237;-73
2022/08/25 00:24:56;;;;;;;1.30;1.10;;;24.60;35.00;;;;;;5098745;28;20962;-73
2022/08/25 00:27:22;;;;;;;1.30;1.20;;;24.60;34.80;;;;;;5094262;28;20432;-72
2022/08/25 00:29:49;;;;;;;1.30;1.20;;;24.60;34.50;;;;;;5100484;28;20213;-73
2022/08/25 00:32:17;;;;;;;1.30;1.20;;;24.50;35.00;;;;;;5099382;28;20912;-72
2022/08/25 00:34:43;;;;;;;1.30;1.30;;;24.60;35.80;;;;;;5095918;28;20479;-72
2022/08/25 00:37:09;;;;;;;1.30;1.20;;;24.60;35.50;;;;;;5085026;28;20426;-73
2022/08/25 00:39:35;;;;;;;1.30;1.30;;;24.70;35.40;;;;;;5098192;28;20517;-73
2022/08/25 00:42:03;;;;;;;1.30;1.20;;;24.70;34.90;;;;;;5080882;28;20802;-72
2022/08/25 00:44:31;;;;;;;1.30;1.20;;;24.70;35.80;;;;;;5095768;28;20428;-73
2022/08/25 00:47:00;;;;;;;1.30;1.20;;;24.70;35.80;;;;;;5087581;28;20452;-73
2022/08/25 00:49:37;;;;;;;1.30;1.30;;;24.60;35.80;;;;;;5092567;28;20460;-72
2022/08/25 00:52:26;;;;;;;1.30;1.17;;;24.30;35.00;;;;;;5090723;28;20794;-73
2022/08/25 00:55:00;;;;;;;1.30;1.30;;;24.30;35.60;;;;;;5100831;28;20942;-72
2022/08/25 00:57:33;;;;;;;1.30;1.20;;;23.40;37.00;;;;;;5082698;28;20511;-72
2022/08/25 00:59:59;;;;;;;1.30;1.10;;;22.60;40.10;;;;;;5100762;28;20820;-72
2022/08/25 01:02:25;;;;;;;1.30;1.20;;;22.70;40.90;;;;;;5090787;28;20954;-73
2022/08/25 01:04:51;;;;;;;1.30;1.20;;;23.10;40.00;;;;;;5088417;28;20426;-73
2022/08/25 01:07:21;;;;;;;1.30;1.10;;;23.40;39.20;;;;;;5102223;28;20208;-72
2022/08/25 01:09:49;;;;;;;1.30;1.20;;;23.50;39.20;;;;;;5101699;28;20333;-72
2022/08/25 01:12:16;;;;;;;1.30;1.20;;;23.60;38.20;;;;;;5087764;28;20511;-73
2022/08/25 01:14:43;;;;;;;1.30;1.20;;;23.60;39.30;;;;;;5106626;28;20436;-73
2022/08/25 01:17:09;;;;;;;1.30;1.30;;;23.60;39.10;;;;;;5089794;28;20912;-73
2022/08/25 01:19:35;;;;;;;1.30;1.20;;;23.70;38.60;;;;;;5102930;28;20812;-73
2022/08/25 01:22:01;;;;;;;1.30;1.20;;;23.80;38.40;;;;;;5089851;28;20795;-73
2022/08/25 01:24:41;;;;;;;1.30;1.10;;;23.60;38.90;;;;;;5106961;28;20186;-73
2022/08/25 01:27:08;;;;;;;1.30;1.30;;;23.60;38.30;;;;;;5093201;28;20204;-72
2022/08/25 01:29:35;;;;;;;1.30;1.20;;;23.60;38.40;;;;;;5092573;28;21102;-73
2022/08/25 01:32:06;;;;;;;1.30;1.20;;;23.60;39.40;;;;;;5096103;28;20423;-73
2022/08/25 01:34:34;;;;;;;1.30;1.20;;;23.50;39.10;;;;;;5097155;28;20427;-73
2022/08/25 01:37:00;;;;;;;1.30;1.20;;;23.60;39.90;;;;;;5095087;28;20444;-72
2022/08/25 01:39:28;;;;;;;1.30;1.30;;;23.40;39.10;;;;;;5096581;28;20431;-72
2022/08/25 01:42:17;;;;;;;1.30;1.20;;;23.00;39.50;;;;;;5102456;28;20497;-73
2022/08/25 01:44:44;;;;;;;1.30;1.20;;;23.00;40.20;;;;;;5080911;28;20474;-73
2022/08/25 01:47:11;;;;;;;1.30;1.30;;;23.10;40.00;;;;;;5083824;28;20535;-73
2022/08/25 01:49:36;;;;;;;1.30;1.20;;;23.10;40.00;;;;;;5084641;28;20499;-73
2022/08/25 01:52:23;;;;;;;1.30;1.20;;;23.00;39.90;;;;;;5108428;28;20431;-72
2022/08/25 01:54:48;;;;;;;1.30;1.30;;;23.00;40.90;;;;;;5075391;28;20178;-73
2022/08/25 01:57:14;;;;;;;1.30;1.27;;;23.10;40.70;;;;;;5091999;28;20433;-73
2022/08/25 01:59:40;;;;;;;1.30;1.20;;;23.00;41.40;;;;;;5092178;28;20202;-73
2022/08/25 02:02:05;;;;;;;1.30;1.20;;;23.00;40.60;;;;;;5093589;28;20181;-73
2022/08/25 02:04:31;;;;;;;1.30;1.10;;;22.90;40.80;;;;;;5093596;28;20275;-73
2022/08/25 02:06:59;;;;;;;1.30;1.20;;;22.90;40.60;;;;;;5082725;28;20186;-73
2022/08/25 02:09:24;;;;;;;1.30;1.20;;;23.10;39.30;;;;;;5074477;28;20690;-73
2022/08/25 02:11:50;;;;;;;1.30;1.20;;;23.00;40.40;;;;;;5083738;28;20430;-73
2022/08/25 02:14:18;;;;;;;1.30;1.10;;;22.70;41.30;;;;;;5093477;28;20641;-73
2022/08/25 02:16:47;;;;;;;1.30;1.23;;;22.70;41.90;;;;;;5082915;28;20234;-72
2022/08/25 02:19:14;;;;;;;1.30;1.20;;;22.00;43.40;;;;;;5073212;28;20402;-73
2022/08/25 02:21:40;;;;;;;8.00;2.93;;;22.00;44.20;;;;;;5073037;28;20532;-73
2022/08/25 02:24:07;;;;;;;241.70;8.00;;;22.30;43.80;;;;;;5084450;28;20419;-73
2022/08/25 02:26:32;;;;;;;1.30;1.20;;;22.40;42.60;;;;;;5094740;28;20439;-73
2022/08/25 02:29:00;;;;;;;852.80;75.50;;;22.50;43.70;;;;;;5097247;28;20482;-73
2022/08/25 02:31:26;;;;;;;88.20;12.27;;;22.40;43.80;;;;;;5097637;28;20980;-72
2022/08/25 02:33:53;;;;;;;1.30;1.20;;;22.30;43.20;;;;;;5103827;28;20475;-73
2022/08/25 02:36:20;;;;;;;360.33;35.30;;;22.20;42.90;;;;;;5095734;28;20484;-73
2022/08/25 02:38:46;;;;;;;51.53;26.30;;;21.90;43.80;;;;;;5094176;28;20431;-73
2022/08/25 02:41:18;;;;;;;309.97;162.97;;;21.90;44.40;;;;;;5100468;28;20558;-72
2022/08/25 02:43:45;;;;;;;1999.90;999.90;;;22.00;44.20;;;;;;5098180;28;20430;-73
2022/08/25 02:46:11;;;;;;;1999.90;999.90;;;22.30;43.10;;;;;;5096947;28;20492;-73
2022/08/25 02:48:38;;;;;;;1999.90;999.90;;;22.30;43.80;;;;;;5099373;28;20550;-73
2022/08/25 02:51:05;;;;;;;1999.90;999.90;;;22.30;43.30;;;;;;5081141;28;20800;-73
2022/08/25 02:53:32;;;;;;;1.30;1.13;;;22.30;43.80;;;;;;5103232;28;20999;-73
2022/08/25 02:55:58;;;;;;;1.30;1.10;;;22.00;43.50;;;;;;5102200;28;20421;-72
2022/08/25 02:58:24;;;;;;;1.30;1.10;;;22.00;44.50;;;;;;5092446;28;20795;-73
2022/08/25 03:00:51;;;;;;;1.30;1.13;;;22.10;44.60;;;;;;5099081;28;20734;-73
2022/08/25 03:03:18;;;;;;;1.30;1.20;;;22.30;42.90;;;;;;5092703;28;20438;-73
2022/08/25 03:05:43;;;;;;;1.30;1.10;;;22.20;43.70;;;;;;5100644;28;20409;-73
2022/08/25 03:08:09;;;;;;;1.30;1.10;;;22.20;43.40;;;;;;5095175;28;20520;-72
2022/08/25 03:10:36;;;;;;;1.30;1.20;;;22.20;43.70;;;;;;5104167;28;20236;-73
2022/08/25 03:13:01;;;;;;;1.30;1.10;;;22.30;43.10;;;;;;5103537;28;20455;-73
2022/08/25 03:15:27;;;;;;;1.30;1.10;;;22.20;43.70;;;;;;5095565;28;20476;-73
2022/08/25 03:17:54;;;;;;;1.30;1.10;;;22.00;43.90;;;;;;5087082;28;20182;-73
2022/08/25 03:20:22;;;;;;;1.30;1.00;;;21.80;44.30;;;;;;5102511;28;21215;-73
2022/08/25 03:22:48;;;;;;;1.30;1.10;;;21.80;44.70;;;;;;5109705;28;20921;-72
2022/08/25 03:27:59;;;;;;;1.30;1.10;;;22.00;44.30;;;;;;5092951;28;20477;-73
2022/08/25 03:30:26;;;;;;;1.30;1.10;;;21.90;44.90;;;;;;5105447;28;20471;-73
2022/08/25 03:32:51;;;;;;;1.30;1.20;;;21.80;44.60;;;;;;5104276;28;20413;-73
2022/08/25 03:35:17;;;;;;;1.30;1.10;;;21.80;44.50;;;;;;5100376;28;20852;-72
2022/08/25 03:37:43;;;;;;;1.30;1.10;;;21.90;44.30;;;;;;5105175;28;20253;-72
2022/08/25 03:40:11;;;;;;;1.30;1.10;;;21.80;44.90;;;;;;5092598;28;20287;-73
2022/08/25 03:42:42;;;;;;;1.30;1.20;;;21.80;45.00;;;;;;5103379;28;20173;-72
2022/08/25 03:45:10;;;;;;;1.30;1.10;;;21.70;44.60;;;;;;5098995;28;20423;-73
2022/08/25 03:47:37;;;;;;;1.30;1.20;;;21.60;44.90;;;;;;5096257;28;20520;-73
2022/08/25 03:50:04;;;;;;;1.30;1.10;;;21.60;44.90;;;;;;5096808;28;22334;-72
2022/08/25 03:52:30;;;;;;;1.30;1.10;;;21.50;45.10;;;;;;5103697;28;20455;-72
2022/08/25 03:54:55;;;;;;;1.30;1.10;;;21.60;44.90;;;;;;5096925;28;20468;-72
2022/08/25 03:57:21;;;;;;;1.30;1.17;;;21.50;45.80;;;;;;5106341;28;20177;-73
2022/08/25 03:59:47;;;;;;;1.30;1.10;;;21.50;45.30;;;;;;5096909;28;20255;-73
2022/08/25 04:02:12;;;;;;;1.30;1.10;;;21.60;45.50;;;;;;5089284;28;20225;-72
2022/08/25 04:04:39;;;;;;;1.30;1.10;;;21.70;44.80;;;;;;5101617;28;20181;-72
2022/08/25 04:07:05;;;;;;;1.30;1.00;;;21.80;44.10;;;;;;5098422;28;20257;-73
2022/08/25 04:09:31;;;;;;;1.30;1.20;;;21.60;45.70;;;;;;5102445;28;20548;-72
2022/08/25 04:11:56;;;;;;;1.30;1.10;;;21.50;45.40;;;;;;5091412;28;20182;-73
2022/08/25 04:14:22;;;;;;;1.30;1.10;;;21.50;45.50;;;;;;5091976;28;20428;-72
2022/08/25 04:16:48;;;;;;;1.30;1.13;;;21.60;44.50;;;;;;5096150;28;20189;-72
2022/08/25 04:19:14;;;;;;;1.30;1.13;;;21.70;44.20;;;;;;5095617;28;20193;-73
2022/08/25 04:21:41;;;;;;;1.30;1.10;;;21.50;45.40;;;;;;5099009;28;20448;-73
2022/08/25 04:24:09;;;;;;;1.30;1.20;;;21.40;45.60;;;;;;5093767;28;20182;-73
2022/08/25 04:26:40;;;;;;;1.30;1.20;;;21.40;45.40;;;;;;5098833;28;20466;-73
2022/08/25 04:29:08;;;;;;;1.30;1.00;;;21.40;46.00;;;;;;5095024;28;20468;-72
2022/08/25 04:31:34;;;;;;;1.30;1.10;;;21.30;45.80;;;;;;5100579;28;20522;-72
2022/08/25 04:34:04;;;;;;;1.30;1.20;;;21.40;45.90;;;;;;5090622;28;20515;-73
2022/08/25 04:36:30;;;;;;;1.30;1.20;;;21.30;45.90;;;;;;5096297;28;20430;-72
2022/08/25 04:38:56;;;;;;;1.30;1.20;;;21.40;46.70;;;;;;5102374;28;20438;-73
2022/08/25 04:41:23;;;;;;;1.30;1.20;;;21.40;45.20;;;;;;5079199;28;20467;-72
2022/08/25 04:43:50;;;;;;;1.30;1.23;;;21.40;45.80;;;;;;5094116;28;20177;-73
2022/08/25 04:46:25;;;;;;;1.30;1.20;;;21.30;46.70;;;;;;5106576;28;20836;-73
2022/08/25 04:48:53;;;;;;;1.30;1.20;;;21.40;45.80;;;;;;5090703;28;20522;-72
2022/08/25 04:51:25;;;;;;;1.30;1.20;;;21.30;46.60;;;;;;5085697;28;20452;-72
2022/08/25 04:53:52;;;;;;;1.30;1.20;;;21.20;46.40;;;;;;5095987;28;20514;-73
2022/08/25 04:56:20;;;;;;;1.30;1.10;;;21.40;45.20;;;;;;5094232;28;20409;-72
2022/08/25 04:58:46;;;;;;;1.30;1.10;;;21.50;45.60;;;;;;5083333;28;20432;-73
2022/08/25 05:01:15;;;;;;;1.30;1.30;;;21.50;45.10;;;;;;5076840;22;20490;-69
2022/08/25 05:03:42;;;;;;;1.30;1.20;;;21.40;46.10;;;;;;5031915;28;20905;-68
2022/08/25 05:06:08;;;;;;;1.30;1.10;;;21.40;46.10;;;;;;5032772;28;20532;-68
2022/08/25 05:08:35;;;;;;;1.30;1.10;;;21.20;46.50;;;;;;5034026;28;20825;-68
2022/08/25 05:11:08;;;;;;;1.30;1.20;;;21.20;46.60;;;;;;5033237;28;20950;-69
2022/08/25 05:13:34;;;;;;;1.30;1.10;;;21.30;47.80;;;;;;5032343;28;20515;-68
2022/08/25 05:16:01;;;;;;;1.30;1.20;;;21.20;47.20;;;;;;5032693;28;20422;-71
2022/08/25 05:18:29;;;;;;;1.30;1.10;;;21.20;47.20;;;;;;5032480;28;20453;-68
2022/08/25 05:20:56;;;;;;;1.30;1.20;;;21.30;47.50;;;;;;5031061;28;20963;-68
2022/08/25 05:23:23;;;;;;;1.30;1.10;;;21.40;46.70;;;;;;5032613;28;20798;-68
2022/08/25 05:25:50;;;;;;;1.30;1.10;;;21.40;46.80;;;;;;5034234;28;20438;-68
2022/08/25 05:28:18;;;;;;;1.30;1.20;;;21.50;47.60;;;;;;5029478;28;20470;-68
2022/08/25 05:30:44;;;;;;;1.30;1.10;;;21.60;47.10;;;;;;5030477;28;20451;-70
2022/08/25 05:33:11;;;;;;;1.30;1.10;;;21.60;47.40;;;;;;5032933;28;20660;-68
2022/08/25 05:35:37;;;;;;;1.30;1.00;;;21.80;46.10;;;;;;5033339;28;20431;-68
2022/08/25 05:38:04;;;;;;;1.30;1.13;;;21.90;45.80;;;;;;5032696;28;20510;-68
2022/08/25 05:40:30;;;;;;;1.30;1.20;;;21.80;45.80;;;;;;5030244;28;20233;-68
2022/08/25 05:42:55;;;;;;;1.30;1.20;;;21.90;45.80;;;;;;5031352;28;20448;-68
2022/08/25 05:45:21;;;;;;;1.30;1.10;;;22.00;45.60;;;;;;5033132;28;20428;-68
2022/08/25 05:47:48;;;;;;;1.30;1.10;;;22.10;46.10;;;;;;5031392;28;20192;-68
2022/08/25 05:50:14;;;;;;;1.30;1.13;;;22.20;45.80;;;;;;5029903;28;20204;-68
2022/08/25 05:52:40;;;;;;;1.27;1.00;;;22.30;43.80;;;;;;5031034;28;20426;-68
2022/08/25 05:55:06;;;;;;;1.30;1.20;;;22.00;44.10;;;;;;5031984;28;20434;-68
2022/08/25 05:57:33;;;;;;;1.30;1.10;;;22.00;43.90;;;;;;5032675;28;20232;-68
2022/08/25 05:59:58;;;;;;;1.30;1.10;;;22.00;44.40;;;;;;5032251;28;20480;-69
2022/08/25 06:02:43;;;;;;;1.30;1.10;;;21.90;44.10;;;;;;5027756;28;20461;-68
2022/08/25 06:05:12;;;;;;;1.20;1.10;;;22.10;45.00;;;;;;5032726;28;20246;-69
2022/08/25 06:07:38;;;;;;;1.30;1.10;;;22.10;44.30;;;;;;5031356;28;20435;-68
2022/08/25 06:10:05;;;;;;;1.30;1.10;;;22.10;43.60;;;;;;5031241;28;20508;-68
2022/08/25 06:12:34;;;;;;;1.30;1.20;;;22.00;44.70;;;;;;5031034;28;20436;-68
2022/08/25 06:15:01;;;;;;;1.23;1.23;;;21.60;46.00;;;;;;5028247;28;20509;-68
2022/08/25 06:17:26;;;;;;;1.30;1.17;;;21.30;47.60;;;;;;5028133;28;20984;-68
2022/08/25 06:19:53;;;;;;;1.30;1.20;;;21.60;47.30;;;;;;5030832;28;20444;-68
2022/08/25 06:22:20;;;;;;;1.30;1.27;;;21.40;47.30;;;;;;5032041;28;20182;-68
2022/08/25 06:24:46;;;;;;;1.30;1.10;;;21.60;47.30;;;;;;5030615;28;20921;-68
2022/08/25 06:27:11;;;;;;;1.30;1.30;;;21.90;45.80;;;;;;5030752;28;20559;-68
2022/08/25 06:29:37;;;;;;;1.30;1.10;;;22.00;45.10;;;;;;5031191;28;20563;-70
2022/08/25 06:32:03;;;;;;;1.27;1.10;;;21.90;45.10;;;;;;5031005;28;20181;-68
2022/08/25 06:34:29;;;;;;;1.30;1.20;;;21.80;45.90;;;;;;5032572;28;20172;-68
2022/08/25 06:36:54;;;;;;;1.30;1.20;;;22.00;46.00;;;;;;5032408;28;20433;-69
2022/08/25 06:39:21;;;;;;;1.30;1.10;;;22.30;43.80;;;;;;5030320;28;20271;-70
2022/08/25 06:41:53;;;;;;;1.23;1.10;;;21.90;45.80;;;;;;5026517;28;20204;-70
2022/08/25 06:44:20;;;;;;;1.30;1.27;;;22.20;46.80;;;;;;5025660;28;20461;-70
2022/08/25 06:46:46;;;;;;;1.30;1.20;;;22.20;44.90;;;;;;5029628;28;20434;-70
2022/08/25 06:49:12;;;;;;;1.30;1.20;;;22.20;46.40;;;;;;5029594;28;20464;-70
2022/08/25 06:51:38;;;;;;;1.30;1.20;;;22.60;44.10;;;;;;5031522;28;20219;-70
2022/08/25 06:54:05;;;;;;;1.27;1.10;;;22.70;43.40;;;;;;5017913;28;20811;-70
2022/08/25 06:56:31;;;;;;;1.20;1.10;;;22.50;44.00;;;;;;5029590;28;20255;-70
2022/08/25 06:58:57;;;;;;;1.30;1.13;;;22.90;44.30;;;;;;5032834;28;20499;-70
2022/08/25 07:01:25;;;;;;;1.30;1.10;;;23.20;44.00;;;;;;5029018;28;20616;-70
2022/08/25 07:03:56;;;;;;;1.30;1.13;;;23.70;41.80;;;;;;5026597;28;20258;-70
2022/08/25 07:06:23;;;;;;;1.30;1.20;;;23.90;41.00;;;;;;5027387;28;20525;-70
2022/08/25 07:08:49;;;;;;;1.30;1.10;;;24.10;41.30;;;;;;5028335;28;20463;-70
2022/08/25 07:11:15;;;;;;;1.30;1.10;;;24.30;40.00;;;;;;5027631;28;20452;-71
2022/08/25 07:13:41;;;;;;;1.30;1.10;;;24.00;39.40;;;;;;5027471;28;20176;-71
2022/08/25 07:16:07;;;;;;;1.27;1.10;;;24.10;40.20;;;;;;5027556;28;20440;-70
2022/08/25 07:18:34;;;;;;;1.30;1.10;;;23.90;40.10;;;;;;5027039;28;20441;-70
2022/08/25 07:20:59;;;;;;;1.30;1.10;;;23.50;41.20;;;;;;5028194;28;20205;-71
2022/08/25 07:23:26;;;;;;;1.30;1.20;;;23.20;42.40;;;;;;5022438;28;20443;-71
2022/08/25 07:25:53;;;;;;;1.20;1.13;;;23.60;41.20;;;;;;5025181;28;20516;-70
2022/08/25 07:28:20;;;;;;;1.30;1.20;;;23.50;41.80;;;;;;5027057;28;20461;-70
2022/08/25 07:30:46;;;;;;;1.30;1.30;;;24.00;40.90;;;;;;5028042;28;20473;-70
2022/08/25 07:33:12;;;;;;;1.30;1.10;;;24.20;40.60;;;;;;5029155;28;20870;-70
2022/08/25 07:35:37;;;;;;;1.30;1.20;;;24.20;40.00;;;;;;5027450;28;20558;-71
2022/08/25 07:38:05;;;;;;;1.27;1.10;;;24.50;39.20;;;;;;5028395;28;20190;-70
2022/08/25 07:40:34;;;;;;;1.30;1.10;;;23.90;41.90;;;;;;5028404;28;20245;-70
2022/08/25 07:43:07;;;;;;;1.23;1.20;;;24.40;40.80;;;;;;5027527;28;20461;-70
2022/08/25 07:45:35;;;;;;;1.27;1.10;;;24.80;39.70;;;;;;5024915;28;20623;-70
2022/08/25 07:48:08;;;;;;;1.20;1.10;;;25.10;38.80;;;;;;5027815;28;20877;-70
2022/08/25 07:50:35;;;;;;;1.20;1.10;;;25.30;38.10;;;;;;5025744;28;20981;-70
2022/08/25 07:53:01;;;;;;;1.30;1.20;;;25.40;37.70;;;;;;5029213;28;20427;-71
2022/08/25 07:55:29;;;;;;;1.27;1.20;;;25.50;38.20;;;;;;5028717;28;20438;-70
2022/08/25 07:57:55;;;;;;;1.30;1.20;;;25.30;37.60;;;;;;5028273;28;20437;-70
2022/08/25 08:00:21;;;;;;;1.30;1.20;;;25.40;38.20;;;;;;5028223;28;20477;-70
2022/08/25 08:02:47;;;;;;;1.23;1.10;;;25.50;38.60;;;;;;5030909;28;20497;-70
2022/08/25 08:05:14;;;;;;;1.20;1.10;;;25.80;37.90;;;;;;5028212;28;20433;-70
2022/08/25 08:07:39;;;;;;;1.20;1.10;;;25.00;38.00;;;;;;5029873;28;20254;-70
2022/08/25 08:10:08;;;;;;;1.30;1.20;;;24.70;39.00;;;;;;5028393;28;20455;-70
2022/08/25 08:12:35;;;;;;;1.27;1.10;;;24.60;40.60;;;;;;5027158;28;20209;-70
2022/08/25 08:15:02;;;;;;;1.30;1.10;;;24.40;41.40;;;;;;5028017;28;20779;-70
2022/08/25 08:17:28;;;;;;;1.20;1.13;;;24.50;41.50;;;;;;5029344;28;20442;-70
2022/08/25 08:19:53;;;;;;;1.20;1.20;;;24.70;41.20;;;;;;5023498;28;20473;-72
2022/08/25 08:22:19;;;;;;;1.20;1.10;;;25.20;40.60;;;;;;5029341;28;20176;-72
2022/08/25 08:24:45;;;;;;;1.30;1.20;;;25.70;39.30;;;;;;5028878;28;20182;-71
2022/08/25 08:27:12;;;;;;;1.20;1.10;;;26.10;36.50;;;;;;5026420;28;20484;-72
2022/08/25 08:29:39;;;;;;;1.50;1.10;;;26.10;36.60;;;;;;5021772;28;20234;-72
2022/08/25 08:32:07;;;;;;;1.20;1.10;;;26.10;37.70;;;;;;5027308;28;20465;-73
2022/08/25 08:34:33;;;;;;;1.20;1.10;;;26.40;35.40;;;;;;5029448;28;20801;-72
2022/08/25 08:36:59;;;;;;;4.47;1.10;;;26.60;35.20;;;;;;5029047;28;20430;-71
2022/08/25 08:39:26;;;;;;;3.40;1.10;;;26.30;36.00;;;;;;5026754;28;20190;-71
2022/08/25 08:42:16;;;;;;;1.30;1.23;;;26.10;36.90;;;;;;5025073;28;20486;-71
2022/08/25 08:44:45;;;;;;;1.30;1.20;;;26.50;36.90;;;;;;5023383;28;20525;-71
2022/08/25 08:47:29;;;;;;;1.20;1.10;;;26.40;36.50;;;;;;5025854;28;20426;-71
2022/08/25 08:50:18;;;;;;;1.30;1.20;;;26.70;36.10;;;;;;5023216;28;20507;-71
2022/08/25 08:53:05;;;;;;;1.20;1.10;;;27.00;34.90;;;;;;5028712;28;20449;-71
2022/08/25 08:55:57;;;;;;;1.20;1.10;;;27.00;34.70;;;;;;5026152;28;20485;-72
2022/08/25 08:58:35;;;;;;;1.30;1.20;;;27.00;34.10;;;;;;5025637;28;20471;-71
2022/08/25 09:01:00;;;;;;;1.27;1.20;;;27.30;33.80;;;;;;5029229;28;20471;-72
2022/08/25 09:03:39;;;;;;;1.20;1.10;;;27.50;33.90;;;;;;5029200;28;20435;-71
2022/08/25 09:06:10;;;;;;;1.27;1.20;;;27.70;32.40;;;;;;5028426;28;20179;-70
2022/08/25 09:08:37;;;;;;;1.20;1.10;;;27.50;32.70;;;;;;5024898;28;20996;-71
2022/08/25 09:11:17;;;;;;;1.20;1.20;;;27.60;31.70;;;;;;5028886;28;20443;-71
2022/08/25 09:13:46;;;;;;;1.23;1.20;;;27.60;32.30;;;;;;5027799;28;20513;-71
2022/08/25 09:19:35;;;;;;;1.20;1.10;;;27.80;32.70;;;;;;5028414;28;20533;-70
2022/08/25 09:22:11;;;;;;;1.20;1.20;;;28.20;31.60;;;;;;5029976;28;20442;-70
2022/08/25 09:24:45;;;;;;;1.27;1.20;;;28.50;30.10;;;;;;5029187;28;21036;-70
2022/08/25 09:27:32;;;;;;;1.20;1.10;;;28.40;30.50;;;;;;5028426;28;20456;-70
2022/08/25 09:30:06;;;;;;;1.20;1.10;;;28.40;30.20;;;;;;5030105;28;20461;-71
2022/08/25 09:32:42;;;;;;;1.20;1.10;;;28.60;30.90;;;;;;5030096;28;20469;-72
2022/08/25 09:35:19;;;;;;;1.20;1.10;;;28.70;30.70;;;;;;5031260;28;20930;-71
2022/08/25 09:38:03;;;;;;;1.20;1.10;;;28.60;29.90;;;;;;5032049;28;20446;-70
2022/08/25 09:40:33;;;;;;;1.27;1.10;;;27.60;30.80;;;;;;5033968;28;20534;-70
2022/08/25 09:43:01;;;;;;;1.20;1.10;;;27.40;32.40;;;;;;5030329;28;20506;-71
2022/08/25 09:45:45;;;;;;;1.20;1.00;;;27.80;31.20;;;;;;5033011;28;20481;-70
2022/08/25 09:48:54;;;;;;;1.20;1.10;;;27.70;31.20;;;;;;5018733;28;20455;-71
2022/08/25 09:51:25;;;;;;;1.30;1.20;;;27.90;30.30;;;;;;4972512;28;20441;-70
2022/08/25 09:53:54;;;;;;;1.20;1.10;;;27.90;31.00;;;;;;4972576;28;20418;-72
2022/08/25 09:56:22;;;;;;;1.20;1.00;;;28.60;31.00;;;;;;4973166;28;20943;-71
2022/08/25 09:58:48;;;;;;;1.20;1.20;;;28.60;29.10;;;;;;4973275;28;20442;-70
2022/08/25 10:01:18;;;;;;;1.20;1.10;;;28.50;29.00;;;;;;4971114;28;20462;-72
2022/08/25 10:03:55;;;;;;;1.20;1.10;;;28.60;29.00;;;;;;4972106;28;20425;-71
2022/08/25 10:06:21;;;;;;;1.20;1.20;;;28.50;27.60;;;;;;4972127;28;20418;-73
2022/08/25 10:08:47;;;;;;;1.30;1.20;;;28.70;27.30;;;;;;4978057;28;20638;-73
2022/08/25 10:11:29;;;;;;;1.20;1.20;;;29.00;28.00;;;;;;4991063;28;20507;-73
2022/08/25 10:14:27;;;;;;;1.30;1.20;;;29.10;26.70;;;;;;4991384;28;20613;-72
2022/08/25 10:17:13;;;;;;;1.23;1.20;;;29.40;27.70;;;;;;4981742;28;20416;-71
2022/08/25 10:19:39;;;;;;;1.30;1.20;;;29.40;26.20;;;;;;4989736;28;20436;-71
2022/08/25 10:22:31;;;;;;;1.20;1.10;;;29.40;26.10;;;;;;4983097;28;20489;-71
2022/08/25 10:24:58;;;;;;;1.20;1.10;;;29.50;26.20;;;;;;4997111;28;20895;-71
2022/08/25 10:27:42;;;;;;;1.20;1.10;;;29.70;24.90;;;;;;5033189;28;20407;-71
2022/08/25 10:30:11;;;;;;;1.20;1.10;;;29.50;24.20;;;;;;5038825;28;20439;-71
2022/08/25 10:32:58;;;;;;;1.30;1.10;;;29.00;25.70;;;;;;5031103;28;20770;-71
2022/08/25 10:35:44;;;;;;;1.30;1.10;;;28.30;26.00;;;;;;5033178;28;20506;-72
2022/08/25 10:38:42;;;;;;;1.20;1.10;;;28.10;26.80;;;;;;5022575;28;20489;-73
2022/08/25 10:41:17;;;;;;;1.20;1.00;;;28.60;26.60;;;;;;5032431;28;20419;-73
2022/08/25 10:43:51;;;;;;;1.20;1.10;;;29.50;26.80;;;;;;5027498;28;20426;-73
2022/08/25 10:46:31;;;;;;;1.20;1.07;;;30.10;25.20;;;;;;5030544;28;20443;-73
2022/08/25 10:49:20;;;;;;;1.20;1.10;;;30.60;23.60;;;;;;5039488;28;20451;-72
2022/08/25 10:52:04;;;;;;;1.20;1.10;;;30.70;23.60;;;;;;5031404;28;20439;-72
2022/08/25 10:54:38;;;;;;;1.20;1.00;;;31.10;23.80;;;;;;5030849;28;20411;-72
2022/08/25 10:57:10;;;;;;;1.20;1.10;;;31.60;21.10;;;;;;5030594;28;20798;-72
2022/08/25 11:00:09;;;;;;;1.20;1.00;;;31.80;20.90;;;;;;5032684;28;20552;-72
2022/08/25 11:03:00;;;;;;;1.20;1.10;;;32.00;21.40;;;;;;5083221;22;21013;-73
2022/08/25 11:05:43;;;;;;;1.20;1.00;;;32.00;22.10;;;;;;5070192;28;20484;-73
2022/08/25 11:08:38;;;;;;;1.20;1.00;;;31.90;21.50;;;;;;5072027;28;20457;-74
2022/08/25 11:11:43;;;;;;;1.20;1.00;;;32.20;20.40;;;;;;5069683;28;20449;-73
2022/08/25 11:14:22;;;;;;;1.20;1.10;;;32.10;20.10;;;;;;5060023;28;20425;-73
2022/08/25 11:17:00;;;;;;;1.30;1.10;;;31.50;22.80;;;;;;5071586;28;20915;-72
2022/08/25 11:19:42;;;;;;;1.20;1.03;;;31.00;22.30;;;;;;5062827;28;20791;-73
2022/08/25 11:22:26;;;;;;;1.20;1.00;;;32.00;22.10;;;;;;5071387;28;20425;-73
2022/08/25 11:24:52;;;;;;;1.20;1.10;;;33.30;20.70;;;;;;5072055;28;20424;-73
2022/08/25 11:27:21;;;;;;;1.20;1.00;;;34.70;17.70;;;;;;5071967;28;20436;-74
2022/08/25 11:30:16;;;;;;;175.97;3.80;;;36.00;16.70;;;;;;5070880;28;20746;-73
2022/08/25 11:32:46;;;;;;;0.90;0.80;;;37.30;14.70;;;;;;5064646;28;20527;-73
2022/08/25 11:35:16;;;;;;;0.80;0.80;;;37.70;15.00;;;;;;5070937;28;20441;-74
2022/08/25 11:37:55;;;;;;;1.00;0.90;;;37.60;13.40;;;;;;5066871;28;20433;-75
2022/08/25 11:40:48;;;;;;;0.97;0.90;;;37.90;13.30;;;;;;5071023;28;20805;-75
2022/08/25 11:43:44;;;;;;;1.30;0.90;;;37.90;13.40;;;;;;5066609;28;20430;-73
2022/08/25 11:46:27;;;;;;;1.20;0.90;;;38.20;13.00;;;;;;5066335;28;20421;-73
2022/08/25 11:49:04;;;;;;;1.27;1.07;;;38.40;12.10;;;;;;5066670;28;20490;-73
2022/08/25 11:51:32;;;;;;;1.20;0.80;;;38.80;12.40;;;;;;5066691;28;20462;-73
2022/08/25 11:54:17;;;;;;;1.20;0.90;;;38.70;12.60;;;;;;5068069;28;20422;-73
2022/08/25 11:57:01;;;;;;;1.20;0.80;;;37.90;11.90;;;;;;5070289;28;20565;-75
2022/08/25 11:59:48;;;;;;;1.20;0.90;;;37.20;14.90;;;;;;5062834;28;21069;-76
2022/08/25 12:02:50;;;;;;;1.20;0.90;;;36.80;13.70;;;;;;5068851;28;20472;-77
2022/08/25 12:05:18;;;;;;;1.20;0.90;;;36.00;14.70;;;;;;5004326;28;20712;-75
2022/08/25 12:07:48;;;;;;;1.20;0.90;;;37.30;13.20;;;;;;5013591;28;20439;-75
2022/08/25 12:10:19;;;;;;;1.20;0.80;;;38.80;11.40;;;;;;5012239;28;20873;-75
2022/08/25 12:12:45;;;;;;;1.20;0.80;;;40.30;10.20;;;;;;5017105;28;20455;-76
2022/08/25 12:15:52;;;;;;;1.20;0.80;;;39.90;11.70;;;;;;5002731;28;20497;-74
2022/08/25 12:18:21;;;;;;;1.20;0.80;;;40.30;10.10;;;;;;4991657;28;20208;-76
2022/08/25 12:20:53;;;;;;;1.20;0.80;;;40.90;8.90;;;;;;4994064;28;20475;-75
2022/08/25 12:23:32;;;;;;;1.20;0.90;;;40.40;9.20;;;;;;4995687;28;20435;-76
2022/08/25 12:26:08;;;;;;;1.20;0.90;;;39.60;9.60;;;;;;4997634;28;20434;-77
2022/08/25 12:29:02;;;;;;;1.20;0.80;;;36.90;13.00;;;;;;4988563;28;20521;-76
2022/08/25 12:31:38;;;;;;;1.20;0.90;;;38.10;11.40;;;;;;4989866;28;20451;-74
2022/08/25 12:34:13;;;;;;;1.20;0.80;;;39.80;10.30;;;;;;4986939;28;21019;-73
2022/08/25 12:36:53;;;;;;;1.20;0.80;;;39.20;11.00;;;;;;4984492;28;20939;-74
2022/08/25 12:39:22;;;;;;;1.20;0.90;;;39.30;10.00;;;;;;5014793;28;21060;-73
2022/08/25 12:42:00;;;;;;;1.20;0.80;;;39.60;10.50;;;;;;5041439;28;20452;-72
2022/08/25 12:44:45;;;;;;;1.20;0.80;;;39.90;10.60;;;;;;5038930;28;20446;-72
2022/08/25 12:47:23;;;;;;;1.20;0.90;;;39.80;9.20;;;;;;5041572;28;20470;-72
2022/08/25 12:49:49;;;;;;;1.20;0.80;;;39.50;9.30;;;;;;5040969;28;20457;-73
2022/08/25 12:52:18;;;;;;;1.20;0.90;;;38.70;10.20;;;;;;5052034;28;20863;-72
2022/08/25 12:55:03;;;;;;;1.20;0.90;;;38.20;11.50;;;;;;5069923;28;20495;-71
2022/08/25 12:57:48;;;;;;;1.20;0.90;;;36.90;13.00;;;;;;5067193;28;20405;-72
2022/08/25 13:00:31;;;;;;;1.20;0.90;;;36.60;13.30;;;;;;5072709;28;20843;-73
2022/08/25 13:03:18;;;;;;;1.20;1.00;;;36.30;12.60;;;;;;5071528;28;20507;-74
2022/08/25 13:06:08;;;;;;;1.20;0.90;;;36.00;12.30;;;;;;5071115;28;20405;-72
2022/08/25 13:08:53;;;;;;;1.20;0.90;;;36.00;12.80;;;;;;5067835;28;20865;-73
2022/08/25 13:11:48;;;;;;;1.20;0.90;;;36.00;14.30;;;;;;5073204;28;20429;-74